Time;durP1;ratioP1;P1;durP2;ratioP2;P2;SDS_P1;SDS_P2;PMS_P1;PMS_P2;Temp;Humidity;BMP_temperature;BMP_pressure;BME280_temperature;BME280_humidity;BME280_pressure;Samples;Min_cycle;Max_cycle;Signal;HPM_P1;HPM_P2
2022/03/12 00:01:06;;;;;;;42.10;19.30;;;;;;;-144.65;100.00;64500.88;5089324;28;20484;-75
2022/03/12 00:03:32;;;;;;;49.35;19.55;;;;;;;-144.65;100.00;64500.88;5090306;28;20035;-76
2022/03/12 00:05:59;;;;;;;35.97;16.15;;;;;;;-144.65;100.00;64500.88;5090888;28;20451;-75
2022/03/12 00:08:45;;;;;;;43.15;18.42;;;;;;;-144.65;100.00;64500.88;5092354;28;20035;-75
2022/03/12 00:11:16;;;;;;;39.00;17.13;;;;;;;-144.65;100.00;64500.88;5091098;28;20024;-75
2022/03/12 00:13:42;;;;;;;47.70;17.10;;;;;;;-144.65;100.00;64500.88;5090493;28;20024;-76
2022/03/12 00:16:13;;;;;;;40.75;17.73;;;;;;;-144.65;100.00;64500.88;5094103;28;20107;-74
2022/03/12 00:18:42;;;;;;;39.60;18.17;;;;;;;-144.65;100.00;64500.88;5094452;28;20027;-74
2022/03/12 00:21:11;;;;;;;38.55;17.98;;;;;;;-144.65;100.00;64500.88;5092647;28;20035;-74
2022/03/12 00:23:37;;;;;;;42.03;18.35;;;;;;;-144.65;100.00;64500.88;5094482;28;20468;-75
2022/03/12 00:26:03;;;;;;;39.75;19.20;;;;;;;-144.65;100.00;64500.88;5092911;28;20020;-75
2022/03/12 00:28:28;;;;;;;38.38;17.23;;;;;;;-144.65;100.00;64500.88;5094224;28;20107;-74
2022/03/12 00:30:54;;;;;;;49.38;19.85;;;;;;;-144.65;100.00;64500.88;5094485;28;20123;-75
2022/03/12 00:33:24;;;;;;;43.15;17.80;;;;;;;-144.65;100.00;64500.88;5110273;28;20067;-74
2022/03/12 00:35:52;;;;;;;44.03;19.02;;;;;;;-144.65;100.00;64500.88;5094855;28;20384;-74
2022/03/12 00:38:22;;;;;;;43.15;17.13;;;;;;;-144.65;100.00;64500.88;5094515;28;20020;-75
2022/03/12 00:40:49;;;;;;;46.00;17.42;;;;;;;-144.65;100.00;64500.88;5093848;28;20023;-75
2022/03/12 00:43:15;;;;;;;32.90;16.77;;;;;;;-144.65;100.00;64500.88;5094099;28;20031;-75
2022/03/12 00:45:41;;;;;;;39.38;17.42;;;;;;;-144.65;100.00;64500.88;5094308;28;20020;-74
2022/03/12 00:48:07;;;;;;;33.22;16.75;;;;;;;-144.65;100.00;64500.88;5093890;28;20515;-74
2022/03/12 00:50:33;;;;;;;38.38;18.63;;;;;;;-144.65;100.00;64500.88;5093834;28;20028;-74
2022/03/12 00:52:59;;;;;;;36.20;17.33;;;;;;;-144.65;100.00;64500.88;5092572;28;20101;-75
2022/03/12 00:55:24;;;;;;;37.25;18.23;;;;;;;-144.65;100.00;64500.88;5092207;28;20036;-75
2022/03/12 00:57:49;;;;;;;39.22;18.40;;;;;;;-144.65;100.00;64500.88;5093868;28;20717;-74
2022/03/12 01:00:19;;;;;;;38.45;17.08;;;;;;;-144.65;100.00;64500.88;5109276;28;20521;-74
2022/03/12 01:02:45;;;;;;;38.70;17.80;;;;;;;-144.65;100.00;64500.88;5094019;28;20111;-75
2022/03/12 01:05:14;;;;;;;34.58;18.27;;;;;;;-144.65;100.00;64500.88;5108352;28;20128;-75
2022/03/12 01:07:39;;;;;;;37.35;18.08;;;;;;;-144.65;100.00;64500.88;5092274;28;20024;-75
2022/03/12 01:10:05;;;;;;;32.17;16.33;;;;;;;-144.65;100.00;64500.88;5093118;28;20036;-74
2022/03/12 01:12:30;;;;;;;39.70;18.77;;;;;;;-144.65;100.00;64500.88;5093008;28;20040;-74
2022/03/12 01:14:57;;;;;;;40.15;18.17;;;;;;;-144.65;100.00;64500.88;5090599;28;20025;-74
2022/03/12 01:17:22;;;;;;;36.83;18.05;;;;;;;-144.65;100.00;64500.88;5073229;28;20063;-75
2022/03/12 01:19:48;;;;;;;36.55;18.02;;;;;;;-144.65;100.00;64500.88;5073238;28;20060;-75
2022/03/12 01:22:15;;;;;;;46.63;19.23;;;;;;;-144.65;100.00;64500.88;5073297;28;20025;-75
2022/03/12 01:24:41;;;;;;;38.60;16.70;;;;;;;-144.65;100.00;64500.88;5072758;28;20039;-76
2022/03/12 01:27:06;;;;;;;44.38;20.13;;;;;;;-144.65;100.00;64500.88;5072358;28;20024;-75
2022/03/12 01:29:32;;;;;;;39.97;19.10;;;;;;;-144.65;100.00;64500.88;5071624;28;20031;-75
2022/03/12 01:31:57;;;;;;;41.22;19.38;;;;;;;-144.65;100.00;64500.88;5074051;28;20028;-74
2022/03/12 01:34:23;;;;;;;38.28;18.38;;;;;;;-144.65;100.00;64500.88;5072894;28;20398;-74
2022/03/12 01:36:48;;;;;;;51.83;19.10;;;;;;;-144.65;100.00;64500.88;5088197;28;20024;-75
2022/03/12 01:39:14;;;;;;;43.40;20.77;;;;;;;-144.65;100.00;64500.88;5072628;28;20017;-75
2022/03/12 01:41:40;;;;;;;37.35;18.95;;;;;;;-144.65;100.00;64500.88;5088325;28;20025;-75
2022/03/12 01:44:06;;;;;;;35.22;18.75;;;;;;;-144.65;100.00;64500.88;5072620;28;20036;-75
2022/03/12 01:46:43;;;;;;;42.10;20.05;;;;;;;-144.65;100.00;64500.88;5088945;28;20035;-75
2022/03/12 01:49:23;;;;;;;35.13;16.20;;;;;;;-144.65;100.00;64500.88;5089035;28;20123;-76
2022/03/12 01:51:53;;;;;;;31.25;14.48;;;;;;;-144.65;100.00;64500.88;5088166;28;20496;-76
2022/03/12 01:54:23;;;;;;;33.10;15.13;;;;;;;-144.65;100.00;64500.88;5072562;28;20048;-75
2022/03/12 01:56:50;;;;;;;36.50;17.38;;;;;;;-144.65;100.00;64500.88;5072527;28;20066;-75
2022/03/12 01:59:16;;;;;;;40.22;16.15;;;;;;;-144.65;100.00;64500.88;5072318;28;20080;-75
2022/03/12 02:01:41;;;;;;;39.25;16.45;;;;;;;-144.65;100.00;64500.88;5072530;28;20032;-75
2022/03/12 02:04:08;;;;;;;32.88;16.35;;;;;;;-144.65;100.00;64500.88;5072274;28;20025;-75
2022/03/12 02:06:33;;;;;;;38.38;16.23;;;;;;;-144.65;100.00;64500.88;5072141;28;20107;-75
2022/03/12 02:08:59;;;;;;;37.28;16.25;;;;;;;-144.65;100.00;64500.88;5073088;28;20078;-75
2022/03/12 02:11:29;;;;;;;30.00;15.25;;;;;;;-144.65;100.00;64500.88;5072554;28;20017;-74
2022/03/12 02:14:09;;;;;;;31.55;15.30;;;;;;;-144.65;100.00;64500.88;5072527;28;20035;-74
2022/03/12 02:16:36;;;;;;;38.65;15.05;;;;;;;-144.65;100.00;64500.88;5071169;28;20021;-74
2022/03/12 02:19:02;;;;;;;36.10;15.95;;;;;;;-144.65;100.00;64500.88;5072005;28;20021;-75
2022/03/12 02:21:30;;;;;;;30.42;13.82;;;;;;;-144.65;100.00;64500.88;5071903;28;20354;-75
2022/03/12 02:23:56;;;;;;;28.92;14.43;;;;;;;-144.65;100.00;64500.88;5071845;28;20042;-74
2022/03/12 02:26:21;;;;;;;31.75;15.48;;;;;;;-144.65;100.00;64500.88;5072998;28;20033;-75
2022/03/12 02:28:46;;;;;;;34.22;16.15;;;;;;;-144.65;100.00;64500.88;5072012;28;20031;-75
2022/03/12 02:31:14;;;;;;;36.67;15.35;;;;;;;-144.65;100.00;64500.88;5071800;28;20052;-75
2022/03/12 02:33:40;;;;;;;32.78;15.57;;;;;;;-144.65;100.00;64500.88;5071810;28;20056;-74
2022/03/12 02:36:07;;;;;;;31.70;14.25;;;;;;;-144.65;100.00;64500.88;5073254;28;20105;-75
2022/03/12 02:38:34;;;;;;;30.30;15.23;;;;;;;-144.65;100.00;64500.88;5071270;28;20370;-75
2022/03/12 02:41:10;;;;;;;31.67;15.43;;;;;;;-144.65;100.00;64500.88;5071634;28;20032;-75
2022/03/12 02:43:37;;;;;;;31.02;15.10;;;;;;;-144.65;100.00;64500.88;5071574;28;20032;-75
2022/03/12 02:46:02;;;;;;;35.70;16.30;;;;;;;-144.65;100.00;64500.88;5071696;28;20107;-75
2022/03/12 02:48:28;;;;;;;32.72;16.58;;;;;;;-144.65;100.00;64500.88;5071548;28;20553;-74
2022/03/12 02:50:54;;;;;;;39.78;16.00;;;;;;;-144.65;100.00;64500.88;5071656;28;20097;-75
2022/03/12 02:53:20;;;;;;;36.72;16.10;;;;;;;-144.65;100.00;64500.88;5071142;28;20036;-75
2022/03/12 02:55:46;;;;;;;33.03;15.63;;;;;;;-144.65;100.00;64500.88;5070039;28;20041;-75
2022/03/12 02:58:12;;;;;;;34.63;15.35;;;;;;;-144.65;100.00;64500.88;5071105;28;20017;-75
2022/03/12 03:00:47;;;;;;;32.33;15.38;;;;;;;;;;5067040;28;20383;-76
2022/03/12 03:03:12;;;;;;;34.63;15.40;;;;;;;;;;5066938;28;20024;-75
2022/03/12 03:05:45;;;;;;;37.63;15.85;;;;;;;;;;5066033;28;20019;-75
2022/03/12 03:08:11;;;;;;;31.13;15.30;;;;;;;;;;5067642;28;20027;-74
2022/03/12 03:10:38;;;;;;;27.58;13.90;;;;;;;;;;5067662;28;20012;-75
2022/03/12 03:13:29;;;;;;;34.00;16.00;;;;;;;;;;5065983;28;20059;-75
2022/03/12 03:15:55;;;;;;;28.70;14.63;;;;;;;;;;5067966;28;20009;-75
2022/03/12 03:18:23;;;;;;;32.85;15.20;;;;;;;;;;5067512;28;20025;-75
2022/03/12 03:20:48;;;;;;;40.40;16.27;;;;;;;;;;5066603;28;20033;-75
2022/03/12 03:23:14;;;;;;;37.85;16.17;;;;;;;;;;5069241;28;20100;-74
2022/03/12 03:25:39;;;;;;;32.90;16.13;;;;;;;;;;5067881;28;20036;-75
2022/03/12 03:28:08;;;;;;;31.70;16.38;;;;;;;;;;5067098;28;20012;-72
2022/03/12 03:30:34;;;;;;;38.30;17.58;;;;;;;;;;5055615;28;20029;-74
2022/03/12 03:33:00;;;;;;;34.40;16.73;;;;;;;;;;5065129;28;20029;-74
2022/03/12 03:35:25;;;;;;;35.63;17.45;;;;;;;;;;5063225;28;20564;-74
2022/03/12 03:37:50;;;;;;;33.28;16.50;;;;;;;;;;5047301;28;20083;-74
2022/03/12 03:40:15;;;;;;;38.05;17.20;;;;;;;;;;5048047;28;20214;-74
2022/03/12 03:42:41;;;;;;;39.08;16.67;;;;;;;;;;5048066;28;20017;-74
2022/03/12 03:45:06;;;;;;;34.45;16.48;;;;;;;;;;5046944;28;20068;-74
2022/03/12 03:47:31;;;;;;;32.72;16.33;;;;;;;;;;5051047;28;20025;-74
2022/03/12 03:49:56;;;;;;;36.17;17.35;;;;;;;;;;5066916;28;20013;-74
2022/03/12 03:52:22;;;;;;;36.35;17.80;;;;;;;;;;5066657;28;20024;-75
2022/03/12 03:54:47;;;;;;;33.30;16.40;;;;;;;;;;5066608;28;20377;-76
2022/03/12 03:57:14;;;;;;;41.50;16.55;;;;;;;;;;5066454;28;20017;-74
2022/03/12 03:59:40;;;;;;;39.88;16.35;;;;;;;;;;5066655;28;20056;-75
2022/03/12 04:02:05;;;;;;;34.67;16.00;;;;;;;;;;5065919;28;20024;-75
2022/03/12 04:04:35;;;;;;;37.05;16.60;;;;;;;;;;5066557;28;20024;-74
2022/03/12 04:07:01;;;;;;;35.80;17.48;;;;;;;;;;5066317;28;20020;-75
2022/03/12 04:09:26;;;;;;;37.63;17.40;;;;;;;;;;5066312;28;20116;-73
2022/03/12 04:11:52;;;;;;;43.85;17.15;;;;;;;;;;5054586;28;20100;-74
2022/03/12 04:14:17;;;;;;;46.83;19.33;;;;;;;;;;5052906;28;20385;-76
2022/03/12 04:16:43;;;;;;;34.97;16.70;;;;;;;;;;5052291;28;20014;-75
2022/03/12 04:19:09;;;;;;;36.53;18.00;;;;;;;;;;5053413;28;20115;-74
2022/03/12 04:21:35;;;;;;;37.83;17.73;;;;;;;;;;5051752;28;20017;-74
2022/03/12 04:24:00;;;;;;;37.58;17.05;;;;;;;;;;5047484;28;20053;-74
2022/03/12 04:26:25;;;;;;;40.85;18.50;;;;;;;;;;5032914;28;20104;-75
2022/03/12 04:28:51;;;;;;;37.33;16.70;;;;;;;;;;5032895;28;20021;-74
2022/03/12 04:31:18;;;;;;;36.30;16.77;;;;;;;;;;5033045;28;20116;-74
2022/03/12 04:33:43;;;;;;;38.67;17.48;;;;;;;;;;5046787;28;20442;-73
2022/03/12 04:36:09;;;;;;;33.88;17.30;;;;;;;;;;5051173;28;20060;-73
2022/03/12 04:38:35;;;;;;;43.63;17.88;;;;;;;;;;5051598;28;20029;-74
2022/03/12 04:41:00;;;;;;;38.03;16.83;;;;;;;;;;5052291;28;20021;-73
2022/03/12 04:43:26;;;;;;;40.10;17.77;;;;;;;;;;5052659;28;20112;-74
2022/03/12 04:45:52;;;;;;;36.25;17.08;;;;;;;;;;5053063;28;20424;-73
2022/03/12 04:48:19;;;;;;;34.45;16.00;;;;;;;;;;5052281;28;20382;-73
2022/03/12 04:50:44;;;;;;;31.60;16.52;;;;;;;;;;5048764;28;21708;-74
2022/03/12 04:53:10;;;;;;;33.90;16.33;;;;;;;;;;5031934;28;20024;-73
2022/03/12 04:55:36;;;;;;;35.35;16.50;;;;;;;;;;5032428;28;20028;-73
2022/03/12 04:58:02;;;;;;;36.03;16.85;;;;;;;;;;5045416;28;20059;-73
2022/03/12 05:00:28;;;;;;;33.50;17.63;;;;;;;;;;5052493;28;20055;-73
2022/03/12 05:03:18;;;;;;;30.13;15.48;;;;;;;;;;5053213;28;20488;-73
2022/03/12 05:05:44;;;;;;;40.28;18.08;;;;;;;;;;5050934;28;20035;-73
2022/03/12 05:08:14;;;;;;;30.95;15.15;;;;;;;;;;5050161;28;20032;-73
2022/03/12 05:10:40;;;;;;;28.25;15.23;;;;;;;;;;5044738;28;20521;-74
2022/03/12 05:13:05;;;;;;;33.50;16.60;;;;;;;;;;5046899;28;20027;-73
2022/03/12 05:15:38;;;;;;;35.50;15.70;;;;;;;;;;5050530;28;20103;-73
2022/03/12 05:18:07;;;;;;;31.50;15.48;;;;;;;;;;5064004;28;20021;-74
2022/03/12 05:20:34;;;;;;;33.35;14.98;;;;;;;;;;5063719;28;20029;-73
2022/03/12 05:23:00;;;;;;;37.13;16.52;;;;;;;;;;5029639;28;20406;-74
2022/03/12 05:25:25;;;;;;;34.28;16.45;;;;;;;;;;5031805;28;20013;-74
2022/03/12 05:27:52;;;;;;;33.72;15.88;;;;;;;;;;5034428;28;20104;-74
2022/03/12 05:30:18;;;;;;;34.97;16.85;;;;;;;;;;5051796;28;20103;-74
2022/03/12 05:32:43;;;;;;;31.55;14.82;;;;;;;;;;5051401;28;20109;-74
2022/03/12 05:35:08;;;;;;;36.60;16.02;;;;;;;;;;5050197;28;20021;-74
2022/03/12 05:37:36;;;;;;;35.97;17.45;;;;;;;;;;5051576;28;20505;-74
2022/03/12 05:40:02;;;;;;;31.48;16.70;;;;;;;;;;5050166;28;20037;-73
2022/03/12 05:42:29;;;;;;;40.65;18.25;;;;;;;;;;5050147;28;20023;-74
2022/03/12 05:44:56;;;;;;;36.55;17.67;;;;;;;;;;5051957;28;20020;-74
2022/03/12 05:47:23;;;;;;;46.85;18.75;;;;;;;;;;5050869;28;20096;-74
2022/03/12 05:49:48;;;;;;;36.05;17.35;;;;;;;;;;5051438;28;20478;-73
2022/03/12 05:52:14;;;;;;;43.60;19.48;;;;;;;;;;5051927;28;20107;-72
2022/03/12 05:54:39;;;;;;;38.03;18.65;;;;;;;;;;5050509;28;20051;-73
2022/03/12 05:57:04;;;;;;;43.85;23.45;;;;;;;;;;5051421;28;20454;-73
2022/03/12 05:59:30;;;;;;;43.25;18.88;;;;;;;;;;5050642;28;20049;-72
2022/03/12 06:01:55;;;;;;;35.15;18.30;;;;;;;;;;5050877;28;20486;-72
2022/03/12 06:04:26;;;;;;;45.85;21.83;;;;;;;;;;5048061;28;20796;-73
2022/03/12 06:06:55;;;;;;;39.42;18.63;;;;;;;;;;5029786;28;20028;-72
2022/03/12 06:09:20;;;;;;;41.13;18.00;;;;;;;;;;5046294;28;20014;-71
2022/03/12 06:11:47;;;;;;;46.28;20.83;;;;;;;;;;5031502;28;20676;-73
2022/03/12 06:14:16;;;;;;;43.08;21.88;;;;;;;;;;5046395;28;20044;-74
2022/03/12 06:16:48;;;;;;;47.05;21.52;;;;;;;;;;5029973;28;20021;-72
2022/03/12 06:19:14;;;;;;;45.13;21.35;;;;;;;;;;5031134;28;20124;-72
2022/03/12 06:21:39;;;;;;;40.90;20.45;;;;;;;;;;5030664;28;20021;-72
2022/03/12 06:24:05;;;;;;;45.97;21.73;;;;;;;;;;5030760;28;20124;-72
2022/03/12 06:26:35;;;;;;;41.00;20.08;;;;;;;;;;5030551;28;20042;-72
2022/03/12 06:29:02;;;;;;;47.80;21.30;;;;;;;;;;5030595;28;20107;-72
2022/03/12 06:31:27;;;;;;;46.38;19.65;;;;;;;;;;5030699;28;20036;-73
2022/03/12 06:33:54;;;;;;;37.22;19.00;;;;;;;;;;5045648;28;20026;-73
2022/03/12 06:36:19;;;;;;;44.20;19.20;;;;;;;;;;5030482;28;20052;-72
2022/03/12 06:38:44;;;;;;;47.38;21.42;;;;;;;;;;5030583;28;20462;-73
2022/03/12 06:41:10;;;;;;;42.90;19.42;;;;;;;;;;5029309;28;20731;-73
2022/03/12 06:43:40;;;;;;;37.67;18.25;;;;;;;;;;5030316;28;20379;-71
2022/03/12 06:46:05;;;;;;;40.67;19.42;;;;;;;;;;5037692;28;20095;-73
2022/03/12 06:48:31;;;;;;;45.70;20.67;;;;;;;;;;5050939;28;20009;-73
2022/03/12 06:50:57;;;;;;;40.97;19.50;;;;;;;;;;5049577;28;20047;-73
2022/03/12 06:53:22;;;;;;;46.97;20.55;;;;;;;;;;5049276;28;20029;-73
2022/03/12 06:55:47;;;;;;;38.60;19.42;;;;;;;;;;5050427;28;20390;-72
2022/03/12 06:58:13;;;;;;;39.63;19.10;;;;;;;;;;5050069;28;20390;-72
2022/03/12 07:00:38;;;;;;;45.90;20.95;;;;;;;;;;5049870;28;20087;-72
2022/03/12 07:03:04;;;;;;;154.25;61.20;;;;;;;;;;5051091;28;20033;-74
2022/03/12 07:05:29;;;;;;;41.22;21.45;;;;;;;;;;5038142;28;20025;-74
2022/03/12 07:07:54;;;;;;;51.17;22.45;;;;;;;;;;5034589;28;20103;-73
2022/03/12 07:10:20;;;;;;;39.42;19.13;;;;;;;;;;5042436;28;20481;-73
2022/03/12 07:12:46;;;;;;;74.60;35.17;;;;;;;;;;5049868;28;20488;-74
2022/03/12 07:15:12;;;;;;;36.55;18.23;;;;;;;;;;5047208;28;20418;-72
2022/03/12 07:17:38;;;;;;;35.97;17.63;;;;;;;;;;5045258;28;20025;-71
2022/03/12 07:20:05;;;;;;;34.30;17.15;;;;;;;;;;5045009;28;21080;-70
2022/03/12 07:22:31;;;;;;;33.03;17.88;;;;;;;;;;5049741;28;20108;-71
2022/03/12 07:24:56;;;;;;;31.52;16.23;;;;;;;;;;5050829;28;20124;-70
2022/03/12 07:27:22;;;;;;;25.80;14.48;;;;;;;;;;5047620;28;20098;-73
2022/03/12 07:29:47;;;;;;;34.25;15.60;;;;;;;;;;5049590;28;20500;-72
2022/03/12 07:32:12;;;;;;;35.97;16.45;;;;;;;;;;5046774;28;20013;-73
2022/03/12 07:34:38;;;;;;;29.60;16.60;;;;;;;;;;5048611;28;20071;-72
2022/03/12 07:37:03;;;;;;;33.53;18.45;;;;;;;;;;5047201;28;20020;-73
2022/03/12 07:39:29;;;;;;;38.95;15.63;;;;;;;;;;5048513;28;20033;-72
2022/03/12 07:41:54;;;;;;;29.52;15.75;;;;;;;;;;5046898;28;20023;-72
2022/03/12 07:44:19;;;;;;;36.50;16.38;;;;;;;;;;5048493;28;20139;-73
2022/03/12 07:46:45;;;;;;;29.95;14.93;;;;;;;;;;5048192;28;20055;-74
2022/03/12 07:49:11;;;;;;;31.42;14.60;;;;;;;;;;5048733;28;20033;-74
2022/03/12 07:51:36;;;;;;;28.02;15.05;;;;;;;;;;5052032;28;20059;-72
2022/03/12 07:54:06;;;;;;;26.40;14.95;;;;;;;;;;5052453;28;20021;-73
2022/03/12 07:56:31;;;;;;;24.90;14.50;;;;;;;;;;5051985;28;20021;-74
2022/03/12 07:58:56;;;;;;;26.20;14.88;;;;;;;;;;5053400;28;20389;-85
2022/03/12 08:01:22;;;;;;;26.80;16.52;;;;;;;;;;5033480;28;20029;-75
2022/03/12 08:03:48;;;;;;;34.13;16.15;;;;;;;;;;5045921;28;20116;-75
2022/03/12 08:06:14;;;;;;;23.58;15.65;;;;;;;;;;5050766;28;20021;-75
2022/03/12 08:08:39;;;;;;;27.05;15.40;;;;;;;;;;5043593;28;20021;-75
2022/03/12 08:13:48;;;;;;;21.70;14.20;;;;;;;;;;5046913;28;20028;-75
2022/03/12 08:16:14;;;;;;;22.60;14.23;;;;;;;;;;5049257;28;20386;-75
2022/03/12 08:18:40;;;;;;;19.05;12.65;;;;;;;;;;5052030;28;20041;-74
2022/03/12 08:21:06;;;;;;;20.27;12.02;;;;;;;;;;5052212;28;20025;-74
2022/03/12 08:23:31;;;;;;;21.52;13.10;;;;;;;;;;5054575;28;20036;-75
2022/03/12 08:25:57;;;;;;;21.77;13.38;;;;;;;;;;5057483;28;20029;-75
2022/03/12 08:28:23;;;;;;;21.77;13.50;;;;;;;;;;5049045;28;20517;-75
2022/03/12 08:30:48;;;;;;;20.45;13.00;;;;;;;;;;5049062;28;20116;-77
2022/03/12 08:33:14;;;;;;;24.70;12.25;;;;;;;;;;5037555;28;20493;-76
2022/03/12 08:35:39;;;;;;;19.65;13.13;;;;;;;;;;5051377;28;20359;-73
2022/03/12 08:38:05;;;;;;;18.42;12.27;;;;;;;;;;5052087;28;20081;-73
2022/03/12 08:40:30;;;;;;;23.52;12.15;;;;;;;;;;5052584;28;20120;-73
2022/03/12 08:42:56;;;;;;;24.85;11.52;;;;;;;;;;5052704;28;20024;-74
2022/03/12 08:45:21;;;;;;;20.83;12.25;;;;;;;;;;5052514;28;20032;-74
2022/03/12 08:47:47;;;;;;;20.67;11.80;;;;;;;;;;5053166;28;20021;-81
2022/03/12 08:50:13;;;;;;;21.38;12.35;;;;;;;;;;5052088;28;20261;-75
2022/03/12 08:52:39;;;;;;;23.05;12.88;;;;;;;;;;5052287;28;20024;-79
2022/03/12 08:55:05;;;;;;;26.58;13.23;;;;;;;;;;5053802;28;20394;-74
2022/03/12 08:57:30;;;;;;;22.38;11.43;;;;;;;;;;5052065;28;20869;-74
2022/03/12 08:59:56;;;;;;;19.10;9.95;;;;;;;;;;5052466;28;20190;-74
2022/03/12 09:02:23;;;;;;;19.02;10.90;;;;;;;;;;5052784;28;20028;-73
2022/03/12 09:04:48;;;;;;;20.48;12.45;;;;;;;;;;5051350;28;20148;-75
2022/03/12 09:07:13;;;;;;;21.60;12.63;;;;;;;;;;5052353;28;20159;-75
2022/03/12 09:09:39;;;;;;;19.13;11.63;;;;;;;;;;5052633;28;20039;-75
2022/03/12 09:12:05;;;;;;;17.10;11.57;;;;;;;;;;5051169;28;20021;-75
2022/03/12 09:14:34;;;;;;;18.30;10.75;;;;;;;;;;5052528;28;20019;-73
2022/03/12 09:17:00;;;;;;;19.75;11.13;;;;;;;;;;5051322;28;20112;-75
2022/03/12 09:19:25;;;;;;;15.40;9.68;;;;;;;;;;5047134;28;20123;-75
2022/03/12 09:21:51;;;;;;;15.73;9.13;;;;;;;;;;5051717;28;20025;-75
2022/03/12 09:24:16;;;;;;;12.07;7.93;;;;;;;;;;5050164;28;20470;-75
2022/03/12 09:26:42;;;;;;;17.02;8.30;;;;;;;;;;5051425;28;20024;-75
2022/03/12 09:29:08;;;;;;;12.27;7.60;;;;;;;;;;5051187;28;20021;-76
2022/03/12 09:31:34;;;;;;;10.82;7.18;;;;;;;;;;5051295;28;20099;-75
2022/03/12 09:34:00;;;;;;;12.77;8.23;;;;;;;;;;5051107;28;20113;-75
2022/03/12 09:36:25;;;;;;;21.95;8.82;;;;;;;;;;5051242;28;20021;-76
2022/03/12 09:38:51;;;;;;;12.65;9.40;;;;;;;;;;5051211;28;20488;-74
2022/03/12 09:41:17;;;;;;;13.32;8.45;;;;;;;;;;5051493;28;20032;-76
2022/03/12 09:43:42;;;;;;;13.50;7.72;;;;;;;;;;5051459;28;20017;-75
2022/03/12 09:46:08;;;;;;;13.32;8.48;;;;;;;;;;5051361;28;20377;-75
2022/03/12 09:48:33;;;;;;;14.80;8.85;;;;;;;;;;5053494;28;20535;-75
2022/03/12 09:50:58;;;;;;;12.80;7.32;;;;;;;;;;5047590;28;20091;-77
2022/03/12 09:53:23;;;;;;;13.57;8.07;;;;;;;;;;5044499;28;20442;-75
2022/03/12 09:55:49;;;;;;;13.27;7.18;;;;;;;;;;5031148;28;20100;-75
2022/03/12 09:58:14;;;;;;;13.57;7.38;;;;;;;;;;5046178;28;20021;-75
2022/03/12 10:00:39;;;;;;;14.10;8.00;;;;;;;;;;5050480;28;20500;-74
2022/03/12 10:03:05;;;;;;;13.45;8.82;;;;;;;;;;5049431;28;20525;-74
2022/03/12 10:05:30;;;;;;;10.93;7.28;;;;;;;;;;5050480;28;20032;-74
2022/03/12 10:07:55;;;;;;;13.80;8.50;;;;;;;;;;5049890;28;20017;-74
2022/03/12 10:10:22;;;;;;;14.20;6.72;;;;;;;;;;5047986;28;20021;-78
2022/03/12 10:12:47;;;;;;;11.95;7.93;;;;;;;;;;5048363;28;20691;-76
2022/03/12 10:15:15;;;;;;;11.85;7.28;;;;;;;;;;5048886;28;20025;-76
2022/03/12 10:17:41;;;;;;;18.17;7.90;;;;;;;;;;5049685;28;20013;-75
2022/03/12 10:20:08;;;;;;;12.98;7.63;;;;;;;;;;5050527;28;20500;-75
2022/03/12 10:22:33;;;;;;;13.45;8.38;;;;;;;;;;5032766;28;20541;-76
2022/03/12 10:24:58;;;;;;;13.07;8.03;;;;;;;;;;5049226;28;20107;-75
2022/03/12 10:27:24;;;;;;;10.50;6.82;;;;;;;;;;5050296;28;20737;-76
2022/03/12 10:29:49;;;;;;;30.20;8.55;;;;;;;;;;5050511;28;20021;-76
2022/03/12 10:32:23;;;;;;;11.38;7.57;;;;;;;;;;5051331;28;20017;-75
2022/03/12 10:34:52;;;;;;;13.05;7.82;;;;;;;;;;5054700;28;20017;-77
2022/03/12 10:37:18;;;;;;;14.55;7.82;;;;;;;;;;5054987;28;20028;-75
2022/03/12 10:39:45;;;;;;;12.00;7.25;;;;;;;;;;5049715;28;20029;-75
2022/03/12 10:42:12;;;;;;;12.30;7.18;;;;;;;;;;5050526;28;20425;-72
2022/03/12 10:44:39;;;;;;;11.82;7.45;;;;;;;;;;5050931;28;20029;-73
2022/03/12 10:47:23;;;;;;;14.13;7.80;;;;;;;;;;5048550;28;20024;-70
2022/03/12 10:49:56;;;;;;;11.60;6.85;;;;;;;;;;5049720;28;20036;-71
2022/03/12 10:52:22;;;;;;;12.55;6.97;;;;;;;;;;5049557;28;20052;-72
2022/03/12 10:54:47;;;;;;;37.72;19.77;;;;;;;;;;5049778;28;20052;-72
2022/03/12 10:57:12;;;;;;;20.53;13.40;;;;;;;;;;5048212;28;20029;-71
2022/03/12 10:59:37;;;;;;;12.18;7.30;;;;;;;;;;5047798;28;20302;-71
2022/03/12 11:02:04;;;;;;;12.77;6.90;;;;;;;;;;5049905;28;20017;-72
2022/03/12 11:04:30;;;;;;;15.05;7.13;;;;;;;;;;5049694;28;20020;-73
2022/03/12 11:06:57;;;;;;;10.52;6.53;;;;;;;;;;5049805;28;20021;-74
2022/03/12 11:09:36;;;;;;;13.43;7.55;;;;;;;;;;5049151;28;20021;-74
2022/03/12 11:12:04;;;;;;;21.45;7.50;;;;;;;;;;5049751;28;20079;-74
2022/03/12 11:14:31;;;;;;;11.80;7.10;;;;;;;;;;5049332;28;20024;-74
2022/03/12 11:16:57;;;;;;;11.73;6.60;;;;;;;;;;5049693;28;20130;-74
2022/03/12 11:19:37;;;;;;;10.63;6.82;;;;;;;;;;5049417;28;20534;-73
2022/03/12 11:22:09;;;;;;;11.10;6.65;;;;;;;;;;5053393;28;20056;-74
2022/03/12 11:24:46;;;;;;;12.02;6.70;;;;;;;;;;5053618;28;20063;-74
2022/03/12 11:27:13;;;;;;;10.70;6.95;;;;;;;;;;5053634;28;20123;-77
2022/03/12 11:29:38;;;;;;;12.55;6.50;;;;;;;;;;5053437;28;20063;-76
2022/03/12 11:32:05;;;;;;;12.10;7.40;;;;;;;;;;5053839;28;20017;-75
2022/03/12 11:34:34;;;;;;;11.40;6.47;;;;;;;;;;5054751;28;20025;-80
2022/03/12 11:36:59;;;;;;;10.85;6.45;;;;;;;;;;5053183;28;20013;-77
2022/03/12 11:39:39;;;;;;;11.23;6.35;;;;;;;;;;5054162;28;20543;-74
2022/03/12 11:42:13;;;;;;;13.50;6.43;;;;;;;;;;5052787;28;20493;-73
2022/03/12 11:44:39;;;;;;;14.25;6.57;;;;;;;;;;5052995;28;20493;-74
2022/03/12 11:47:05;;;;;;;10.38;5.90;;;;;;;;;;5053293;28;20119;-75
2022/03/12 11:49:31;;;;;;;9.32;5.25;;;;;;;;;;5052200;28;20510;-74
2022/03/12 11:51:57;;;;;;;19.38;6.00;;;;;;;;;;5052840;28;20453;-75
2022/03/12 11:54:22;;;;;;;19.88;8.35;;;;;;;;;;5053761;28;20025;-74
2022/03/12 11:56:47;;;;;;;15.20;6.47;;;;;;;;;;5053374;28;20047;-75
2022/03/12 11:59:12;;;;;;;9.40;5.55;;;;;;;;;;5053217;28;20102;-74
2022/03/12 12:01:39;;;;;;;9.52;5.55;;;;;;;;;;5053243;28;20112;-73
2022/03/12 12:04:06;;;;;;;11.68;5.78;;;;;;;;;;5053075;28;20033;-75
2022/03/12 12:06:33;;;;;;;15.23;5.95;;;;;;;;;;5053259;28;20683;-75
2022/03/12 12:08:59;;;;;;;9.80;5.72;;;;;;;;;;5053601;28;20375;-74
2022/03/12 12:11:24;;;;;;;11.38;5.70;;;;;;;;;;5053210;28;20028;-75
2022/03/12 12:13:49;;;;;;;11.80;6.22;;;;;;;;;;5056492;28;20029;-78
2022/03/12 12:16:18;;;;;;;11.30;6.03;;;;;;;;;;5058070;28;20021;-75
2022/03/12 12:18:43;;;;;;;9.30;5.65;;;;;;;;;;5050525;28;20020;-74
2022/03/12 12:21:13;;;;;;;13.98;5.70;;;;;;;;;;5052955;28;20021;-74
2022/03/12 12:23:38;;;;;;;11.45;5.70;;;;;;;;;;5057738;28;20024;-74
2022/03/12 12:26:08;;;;;;;18.15;6.50;;;;;;;;;;5063622;28;20020;-74
2022/03/12 12:28:44;;;;;;;12.98;5.80;;;;;;;;;;5057046;28;20090;-74
2022/03/12 12:31:14;;;;;;;12.18;5.75;;;;;;;;;;5046415;28;20036;-75
2022/03/12 12:33:43;;;;;;;10.38;5.97;;;;;;;;;;5058812;28;20150;-80
2022/03/12 12:36:08;;;;;;;11.25;6.20;;;;;;;;;;5054972;28;20032;-79
2022/03/12 12:38:34;;;;;;;10.88;5.80;;;;;;;;;;5050863;28;20028;-74
2022/03/12 12:41:03;;;;;;;11.30;6.13;;;;;;;;;;5063304;28;20055;-75
2022/03/12 12:43:37;;;;;;;14.65;6.40;;;;;;;;;;5049115;28;20016;-74
2022/03/12 12:46:08;;;;;;;14.52;6.28;;;;;;;;;;5054318;28;20029;-75
2022/03/12 12:48:43;;;;;;;12.80;6.40;;;;;;;;;;5058669;28;20025;-79
2022/03/12 12:51:15;;;;;;;12.40;5.60;;;;;;;;;;5059882;28;20094;-73
2022/03/12 12:53:41;;;;;;;11.73;5.55;;;;;;;;;;5050424;28;20108;-73
2022/03/12 12:56:26;;;;;;;14.45;4.93;;;;;;;;;;5052745;28;20052;-73
2022/03/12 12:58:51;;;;;;;10.55;5.32;;;;;;;;;;5050821;28;20031;-73
2022/03/12 13:01:18;;;;;;;9.07;5.20;;;;;;;;;;5053320;28;20025;-74
2022/03/12 13:03:45;;;;;;;8.85;5.05;;;;;;;;;;5052117;28;20261;-73
2022/03/12 13:06:11;;;;;;;9.45;4.72;;;;;;;;;;5052370;28;20141;-73
2022/03/12 13:08:44;;;;;;;14.40;5.47;;;;;;;;;;5047733;28;20017;-73
2022/03/12 13:11:25;;;;;;;9.65;5.50;;;;;;;;;;5051366;28;20013;-73
2022/03/12 13:13:58;;;;;;;9.15;5.03;;;;;;;;;;5051773;28;20028;-73
2022/03/12 13:16:24;;;;;;;9.40;4.93;;;;;;;;;;5052261;28;20016;-73
2022/03/12 13:18:49;;;;;;;8.60;4.57;;;;;;;;;;5052108;28;20432;-74
2022/03/12 13:21:26;;;;;;;11.02;5.28;;;;;;;;;;5051704;28;20048;-73
2022/03/12 13:23:51;;;;;;;9.68;5.05;;;;;;;;;;5052494;28;20116;-73
2022/03/12 13:26:17;;;;;;;8.15;4.82;;;;;;;;;;5051628;28;20136;-74
2022/03/12 13:28:48;;;;;;;9.00;5.03;;;;;;;;;;5053780;28;20013;-77